Time;durP1;ratioP1;P1;durP2;ratioP2;P2;SDS_P1;SDS_P2;PMS_P1;PMS_P2;Temp;Humidity;BMP_temperature;BMP_pressure;BME280_temperature;BME280_humidity;BME280_pressure;Samples;Min_cycle;Max_cycle;Signal;HPM_P1;HPM_P2
2023/04/29 00:00:21;;;;;;;8.25;5.10;;;;;;;10.92;64.81;100056.22;5020475;28;20041;-65
2023/04/29 00:02:46;;;;;;;6.70;4.32;;;;;;;11.03;63.85;100059.44;5024636;28;20041;-68
2023/04/29 00:05:12;;;;;;;7.45;4.93;;;;;;;11.06;63.90;100056.47;5025702;28;20165;-65
2023/04/29 00:07:37;;;;;;;9.27;4.65;;;;;;;11.03;63.87;100066.56;5023436;28;20300;-65
2023/04/29 00:10:03;;;;;;;8.05;5.20;;;;;;;11.04;63.90;100066.41;5027937;28;20045;-65
2023/04/29 00:12:30;;;;;;;6.80;4.53;;;;;;;11.11;63.44;100062.13;5023541;28;20033;-68
2023/04/29 00:14:56;;;;;;;6.68;4.50;;;;;;;11.11;62.99;100063.97;5020380;28;20109;-68
2023/04/29 00:17:22;;;;;;;5.80;4.40;;;;;;;11.08;63.73;100053.66;5022243;28;20033;-68
2023/04/29 00:19:47;;;;;;;6.40;4.22;;;;;;;11.02;63.41;100063.09;5021644;28;20049;-65
2023/04/29 00:22:13;;;;;;;6.63;4.50;;;;;;;11.00;63.86;100058.94;5024242;28;20053;-68
2023/04/29 00:24:38;;;;;;;5.43;4.15;;;;;;;10.98;63.77;100051.13;5028615;28;20231;-68
2023/04/29 00:27:04;;;;;;;6.20;4.35;;;;;;;11.00;64.21;100057.09;5022064;28;20025;-68
2023/04/29 00:29:30;;;;;;;5.68;4.43;;;;;;;10.97;64.03;100054.78;5024521;28;20099;-68
2023/04/29 00:31:55;;;;;;;9.82;4.70;;;;;;;10.94;63.31;100057.72;5023202;28;20408;-67
2023/04/29 00:34:21;;;;;;;6.60;4.70;;;;;;;10.77;64.26;100058.63;5019287;28;20041;-65
2023/04/29 00:36:46;;;;;;;6.22;4.45;;;;;;;10.71;64.87;100054.78;5024959;28;20029;-68
2023/04/29 00:39:12;;;;;;;8.13;5.05;;;;;;;10.79;64.92;100061.94;5023900;28;20243;-65
2023/04/29 00:41:38;;;;;;;6.32;5.10;;;;;;;10.84;64.61;100065.78;5022040;28;20059;-67
2023/04/29 00:44:03;;;;;;;8.25;5.20;;;;;;;10.90;64.30;100068.81;5020435;28;20041;-66
2023/04/29 00:46:29;;;;;;;9.63;5.72;;;;;;;10.82;65.25;100070.41;5020727;28;20034;-68
2023/04/29 00:48:55;;;;;;;10.45;7.30;;;;;;;10.80;65.21;100061.78;5024555;28;20046;-65
2023/04/29 00:51:20;;;;;;;14.45;7.72;;;;;;;10.79;65.82;100061.94;5023545;28;20079;-65
2023/04/29 00:53:46;;;;;;;10.95;6.80;;;;;;;10.85;64.98;100056.03;5021465;28;20239;-65
2023/04/29 00:56:13;;;;;;;8.63;5.43;;;;;;;10.66;65.52;100058.88;5021471;28;20044;-65
2023/04/29 00:58:39;;;;;;;7.90;5.70;;;;;;;10.79;65.19;100056.66;5020273;28;20109;-65
2023/04/29 01:01:05;;;;;;;9.07;4.75;;;;;;;10.74;65.66;100062.41;5023595;28;20255;-68
2023/04/29 01:03:31;;;;;;;7.10;5.45;;;;;;;10.56;66.34;100064.28;5022337;28;20048;-68
2023/04/29 01:06:21;;;;;;;8.07;4.70;;;;;;;10.53;66.59;100057.47;5021404;28;20376;-68
2023/04/29 01:09:20;;;;;;;7.35;5.60;;;;;;;10.49;66.67;100058.75;5024080;28;20217;-68
2023/04/29 01:12:05;;;;;;;6.47;4.88;;;;;;;10.61;66.52;100058.50;5020252;28;20097;-68
2023/04/29 01:14:33;;;;;;;7.45;5.80;;;;;;;10.61;66.66;100058.50;5021888;28;20041;-68
2023/04/29 01:17:04;;;;;;;7.40;5.63;;;;;;;10.63;66.41;100054.72;5020556;28;20034;-68
2023/04/29 01:19:51;;;;;;;7.53;5.50;;;;;;;10.70;65.12;100045.16;5020097;28;20030;-68
2023/04/29 01:22:17;;;;;;;7.20;5.20;;;;;;;10.59;66.19;100053.38;5020820;28;20355;-68
2023/04/29 01:24:43;;;;;;;7.82;5.75;;;;;;;10.67;65.86;100040.19;5022942;28;20387;-68
2023/04/29 01:27:41;;;;;;;6.90;5.68;;;;;;;10.67;66.35;100044.66;5021599;28;20114;-68
2023/04/29 01:30:12;;;;;;;7.93;5.88;;;;;;;10.48;66.60;100046.50;5019625;28;20227;-68
2023/04/29 01:32:55;;;;;;;7.80;5.38;;;;;;;10.47;66.34;100044.00;5021930;28;20101;-68
2023/04/29 01:35:41;;;;;;;8.98;5.60;;;;;;;10.48;66.01;100043.84;5020431;28;20068;-68
2023/04/29 01:38:25;;;;;;;6.68;5.32;;;;;;;10.27;67.17;100038.03;5025760;28;20407;-68
2023/04/29 01:41:16;;;;;;;6.32;4.95;;;;;;;10.15;67.73;100033.94;5019395;28;20220;-68
2023/04/29 01:43:45;;;;;;;6.65;4.90;;;;;;;10.04;68.88;100032.34;5024010;28;20053;-68
2023/04/29 01:46:15;;;;;;;8.43;5.57;;;;;;;10.00;68.93;100031.00;5019845;28;20045;-68
2023/04/29 01:48:41;;;;;;;7.82;5.85;;;;;;;9.81;70.24;100031.97;5021002;28;20038;-68
2023/04/29 01:51:06;;;;;;;8.75;5.63;;;;;;;9.97;70.33;100027.81;5019541;28;20038;-68
2023/04/29 01:53:32;;;;;;;11.15;5.47;;;;;;;10.09;69.33;100026.59;5023917;28;20045;-68
2023/04/29 01:55:57;;;;;;;8.68;5.45;;;;;;;10.13;68.95;100027.97;5021858;28;20099;-68
2023/04/29 01:58:23;;;;;;;8.00;5.53;;;;;;;10.03;68.93;100027.22;5024011;28;20048;-68
2023/04/29 02:00:48;;;;;;;6.78;5.20;;;;;;;10.00;69.07;100031.00;5021579;28;20042;-68
2023/04/29 02:03:14;;;;;;;8.38;6.18;;;;;;;10.05;69.05;100034.00;5021595;28;20041;-68
2023/04/29 02:05:39;;;;;;;10.23;7.38;;;;;;;10.02;68.87;100022.91;5019171;28;20034;-68
2023/04/29 02:08:06;;;;;;;9.65;6.22;;;;;;;10.11;68.39;100028.13;5022729;28;20041;-68
2023/04/29 02:10:32;;;;;;;9.50;6.68;;;;;;;10.19;67.72;100030.00;5022412;28;20029;-68
2023/04/29 02:12:57;;;;;;;10.68;7.22;;;;;;;10.19;68.16;100028.19;5020170;28;20394;-68
2023/04/29 02:15:26;;;;;;;10.65;7.07;;;;;;;10.21;67.59;100028.06;5023434;28;20026;-68
2023/04/29 02:17:52;;;;;;;11.40;7.70;;;;;;;10.21;67.37;100036.00;5021522;28;20050;-68
2023/04/29 02:20:17;;;;;;;10.38;6.55;;;;;;;9.98;68.04;100027.66;5022999;28;20052;-68
2023/04/29 02:22:43;;;;;;;8.35;6.07;;;;;;;9.98;67.80;100034.78;5022001;28;20041;-68
2023/04/29 02:25:09;;;;;;;9.50;7.30;;;;;;;10.00;67.53;100024.88;5019974;28;20059;-68
2023/04/29 02:27:34;;;;;;;8.00;6.03;;;;;;;9.99;66.75;100036.44;5023389;28;20068;-68
2023/04/29 02:29:59;;;;;;;11.73;7.35;;;;;;;9.96;67.43;100037.56;5025129;28;20071;-68
2023/04/29 02:32:25;;;;;;;12.73;8.00;;;;;;;9.78;67.21;100037.56;5022479;28;20037;-68
2023/04/29 02:34:50;;;;;;;12.52;8.05;;;;;;;9.84;68.08;100033.47;5021343;28;20124;-68
2023/04/29 02:37:16;;;;;;;25.17;15.57;;;;;;;9.82;68.59;100017.75;5020313;28;20025;-68
2023/04/29 02:39:41;;;;;;;23.23;15.27;;;;;;;9.94;67.85;100021.00;5018378;28;20202;-68
2023/04/29 02:42:07;;;;;;;17.55;11.52;;;;;;;9.87;68.07;100027.88;5023075;28;20100;-68
2023/04/29 02:44:32;;;;;;;20.92;14.63;;;;;;;9.76;68.42;100031.59;5020295;28;20033;-68
2023/04/29 02:46:58;;;;;;;18.35;13.50;;;;;;;9.80;68.50;100032.13;5019743;28;20363;-68
2023/04/29 02:49:23;;;;;;;18.92;12.75;;;;;;;9.82;68.22;100028.34;5023033;28;20148;-68
2023/04/29 02:51:49;;;;;;;21.55;15.88;;;;;;;9.81;68.46;100028.50;5020739;28;20037;-68
2023/04/29 02:54:15;;;;;;;31.48;22.55;;;;;;;9.82;68.45;100033.63;5019269;28;20228;-68
2023/04/29 02:56:41;;;;;;;42.08;29.50;;;;;;;9.74;68.51;100038.84;5020468;28;20038;-68
2023/04/29 02:59:07;;;;;;;52.63;35.67;;;;;;;9.73;69.07;100039.81;5022424;28;20041;-68
2023/04/29 03:01:32;;;;;;;54.70;35.75;;;;;;;9.71;69.41;100036.50;5021867;28;20084;-68
2023/04/29 03:03:58;;;;;;;51.33;36.72;;;;;;;9.81;68.92;100044.34;5021269;28;20030;-68
2023/04/29 03:06:23;;;;;;;53.15;35.80;;;;;;;9.82;68.71;100035.44;5018160;28;20029;-68
2023/04/29 03:08:49;;;;;;;53.38;35.58;;;;;;;9.86;68.59;100047.38;5019163;28;20049;-68
2023/04/29 03:11:14;;;;;;;48.40;33.78;;;;;;;9.88;68.34;100048.06;5022361;28;20213;-68
2023/04/29 03:13:40;;;;;;;46.88;33.63;;;;;;;9.77;68.54;100041.19;5023065;28;20353;-68
2023/04/29 03:16:06;;;;;;;51.17;34.58;;;;;;;9.72;69.24;100037.31;5020893;28;20033;-68
2023/04/29 03:18:31;;;;;;;44.65;31.85;;;;;;;9.69;68.92;100034.97;5020515;28;20057;-68
2023/04/29 03:20:57;;;;;;;39.47;27.50;;;;;;;9.64;69.48;100043.34;5020067;28;20045;-68
2023/04/29 03:23:23;;;;;;;39.13;26.63;;;;;;;9.58;69.56;100036.84;5021112;28;20153;-68
2023/04/29 03:25:48;;;;;;;30.25;22.98;;;;;;;9.57;69.91;100040.47;5022252;28;20037;-68
2023/04/29 03:28:14;;;;;;;30.90;22.30;;;;;;;9.73;69.62;100050.41;5024936;28;20038;-68
2023/04/29 03:30:39;;;;;;;33.58;23.48;;;;;;;9.69;69.55;100053.47;5026411;28;20041;-68
2023/04/29 03:33:05;;;;;;;29.58;22.25;;;;;;;9.55;70.10;100055.66;5026320;28;20388;-68
2023/04/29 03:35:30;;;;;;;31.35;23.67;;;;;;;9.39;70.69;100055.47;5023450;28;20037;-68
2023/04/29 03:37:56;;;;;;;31.90;22.92;;;;;;;9.21;71.54;100058.00;5023100;28;20250;-68
2023/04/29 03:40:21;;;;;;;38.25;24.52;;;;;;;9.22;72.33;100061.50;5025410;28;20033;-68
2023/04/29 03:42:47;;;;;;;33.08;23.50;;;;;;;9.33;72.14;100065.75;5021574;28;20041;-68
2023/04/29 03:45:13;;;;;;;28.17;19.75;;;;;;;9.44;70.98;100069.06;5023526;28;20342;-68
2023/04/29 03:47:38;;;;;;;25.95;17.85;;;;;;;9.44;71.09;100055.03;5022676;28;20049;-68
2023/04/29 03:50:05;;;;;;;21.85;14.85;;;;;;;9.57;70.57;100066.91;5026893;28;20041;-68
2023/04/29 03:52:31;;;;;;;20.35;13.93;;;;;;;9.55;70.70;100039.78;5026487;28;20076;-68
2023/04/29 03:54:57;;;;;;;17.20;11.90;;;;;;;9.85;69.41;100073.00;5026701;28;20038;-68
2023/04/29 03:57:22;;;;;;;14.75;11.07;;;;;;;9.92;69.41;100073.22;5023617;28;20034;-68
2023/04/29 03:59:49;;;;;;;14.65;10.07;;;;;;;9.95;68.98;100083.50;5022093;28;20042;-68
2023/04/29 04:02:15;;;;;;;16.80;9.07;;;;;;;10.06;68.59;100079.81;5022187;28;20029;-68
2023/04/29 04:04:41;;;;;;;10.85;8.82;;;;;;;10.14;68.34;100074.59;5022433;28;20355;-68
2023/04/29 04:07:06;;;;;;;14.32;7.82;;;;;;;10.21;68.19;100083.63;5022357;28;20031;-68
2023/04/29 04:09:32;;;;;;;9.00;6.65;;;;;;;10.10;67.81;100082.00;5025430;28;20045;-68
2023/04/29 04:11:57;;;;;;;9.00;6.50;;;;;;;10.03;68.36;100085.41;5025137;28;20038;-68
2023/04/29 04:14:23;;;;;;;10.20;7.05;;;;;;;10.01;68.66;100087.38;5023849;28;20044;-68
2023/04/29 04:16:49;;;;;;;8.88;6.43;;;;;;;10.09;68.51;100082.16;5030453;28;20053;-68
2023/04/29 04:19:15;;;;;;;12.70;6.97;;;;;;;10.18;68.22;100086.56;5025744;28;20045;-68
2023/04/29 04:21:41;;;;;;;8.13;6.50;;;;;;;10.17;67.92;100082.25;5024079;28;20050;-68
2023/04/29 04:24:06;;;;;;;8.93;6.20;;;;;;;10.13;68.13;100087.00;5023529;28;20535;-68
2023/04/29 04:26:32;;;;;;;8.73;5.88;;;;;;;10.21;68.10;100086.28;5022405;28;20052;-68
2023/04/29 04:28:58;;;;;;;7.18;6.03;;;;;;;10.26;67.81;100088.47;5022178;28;20045;-68
2023/04/29 04:31:24;;;;;;;11.75;6.43;;;;;;;10.28;68.12;100087.34;5024846;28;20029;-68
2023/04/29 04:33:49;;;;;;;8.77;6.18;;;;;;;10.21;68.53;100081.81;5024560;28;20055;-68
2023/04/29 04:36:15;;;;;;;13.10;6.25;;;;;;;10.12;69.27;100080.03;5023941;28;20045;-68
2023/04/29 04:38:40;;;;;;;9.77;6.78;;;;;;;10.17;69.10;100083.06;5023378;28;20037;-68
2023/04/29 04:41:09;;;;;;;14.50;6.38;;;;;;;9.98;69.81;100090.31;5022275;28;20041;-68
2023/04/29 04:43:34;;;;;;;11.10;7.07;;;;;;;10.13;69.93;100086.16;5020919;28;20105;-68
2023/04/29 04:46:09;;;;;;;9.60;6.88;;;;;;;10.30;69.48;100077.44;5024561;28;20030;-68
2023/04/29 04:48:34;;;;;;;12.60;8.10;;;;;;;10.41;68.91;100081.69;5024657;28;20033;-68
2023/04/29 04:51:10;;;;;;;12.73;8.15;;;;;;;10.50;68.62;100078.97;5023764;28;20037;-68
2023/04/29 04:53:36;;;;;;;10.82;7.32;;;;;;;10.49;67.81;100081.75;5021433;28;20038;-68
2023/04/29 04:56:02;;;;;;;9.35;6.63;;;;;;;10.47;68.78;100084.56;5021051;28;20080;-68
2023/04/29 04:58:29;;;;;;;9.23;6.13;;;;;;;10.53;69.30;100086.59;5024902;28;20331;-68
2023/04/29 05:00:55;;;;;;;8.30;5.95;;;;;;;10.58;69.14;100094.06;5023522;28;20045;-68
2023/04/29 05:03:20;;;;;;;10.18;6.47;;;;;;;10.57;69.76;100095.06;5022498;28;20067;-68
2023/04/29 05:05:55;;;;;;;6.22;5.50;;;;;;;10.65;69.46;100094.28;5022553;28;20401;-68
2023/04/29 05:08:21;;;;;;;9.63;6.47;;;;;;;10.71;69.32;100094.50;5023865;28;20100;-68
2023/04/29 05:10:46;;;;;;;10.55;6.20;;;;;;;10.79;69.39;100102.50;5021698;28;20044;-68
2023/04/29 05:13:12;;;;;;;8.52;5.90;;;;;;;10.82;69.37;100102.19;5021504;28;20044;-68
2023/04/29 05:15:37;;;;;;;7.05;6.28;;;;;;;10.83;68.75;100100.38;5023146;28;20409;-68
2023/04/29 05:18:03;;;;;;;9.70;6.05;;;;;;;10.81;69.24;100100.53;5024609;28;20054;-68
2023/04/29 05:20:28;;;;;;;9.77;6.95;;;;;;;10.84;69.53;100104.69;5023089;28;20072;-68
2023/04/29 05:22:53;;;;;;;10.73;7.22;;;;;;;10.78;69.73;100102.66;5022509;28;20037;-68
2023/04/29 05:25:19;;;;;;;11.30;7.72;;;;;;;10.83;69.51;100106.50;5020990;28;20041;-68
2023/04/29 05:27:44;;;;;;;10.52;8.35;;;;;;;10.94;69.97;100097.47;5026005;28;20048;-68
2023/04/29 05:30:10;;;;;;;10.10;8.32;;;;;;;11.01;69.47;100095.03;5030303;28;20041;-68
2023/04/29 05:32:36;;;;;;;14.57;8.52;;;;;;;11.23;69.14;100098.97;5031164;28;20033;-68
2023/04/29 05:35:01;;;;;;;10.75;7.60;;;;;;;11.42;67.71;100096.91;5032666;28;20354;-68
2023/04/29 05:37:29;;;;;;;9.70;6.65;;;;;;;11.58;66.25;100096.19;5025943;28;20030;-68
2023/04/29 05:39:55;;;;;;;9.10;7.40;;;;;;;11.74;66.50;100090.09;5020242;28;20048;-68
2023/04/29 05:42:22;;;;;;;8.48;7.57;;;;;;;11.72;65.06;100092.91;5020722;28;20627;-68
2023/04/29 05:44:47;;;;;;;9.13;6.63;;;;;;;11.97;64.68;100077.09;5018205;28;20244;-68
2023/04/29 05:47:13;;;;;;;8.57;6.32;;;;;;;12.05;63.05;100074.47;5017821;28;20037;-68
2023/04/29 05:49:38;;;;;;;9.60;6.00;;;;;;;12.10;62.26;100069.50;5018935;28;20045;-68
2023/04/29 05:52:05;;;;;;;8.20;5.72;;;;;;;12.14;62.60;100076.13;5017803;28;20052;-68
2023/04/29 05:54:32;;;;;;;11.20;6.68;;;;;;;12.23;62.78;100071.66;5020637;28;20109;-68
2023/04/29 05:56:57;;;;;;;9.88;6.32;;;;;;;12.16;62.89;100074.13;5018828;28;20064;-68
2023/04/29 05:59:22;;;;;;;8.82;6.47;;;;;;;12.13;62.80;100077.13;5018893;28;20033;-68
2023/04/29 06:01:48;;;;;;;13.57;6.55;;;;;;;12.17;63.27;100069.66;5018965;28;20046;-68
2023/04/29 06:04:13;;;;;;;12.00;7.43;;;;;;;12.17;63.43;100072.31;5018024;28;20038;-68
2023/04/29 06:06:39;;;;;;;7.75;6.95;;;;;;;12.38;63.98;100070.84;5018066;28;20029;-68
2023/04/29 06:09:04;;;;;;;9.25;6.50;;;;;;;12.49;63.21;100063.56;5023797;28;20087;-68
2023/04/29 06:11:30;;;;;;;8.70;7.32;;;;;;;12.70;63.47;100062.06;5022110;28;20046;-68
2023/04/29 06:13:56;;;;;;;8.38;5.97;;;;;;;12.79;61.51;100053.06;5016218;28;20272;-68
2023/04/29 06:16:21;;;;;;;10.82;6.05;;;;;;;12.53;60.76;100057.75;5019049;28;20028;-65
2023/04/29 06:18:47;;;;;;;11.13;6.28;;;;;;;12.61;61.55;100044.47;5023239;28;20076;-68
2023/04/29 06:21:12;;;;;;;7.68;5.88;;;;;;;13.03;60.45;100048.69;5026141;28;20044;-66
2023/04/29 06:23:38;;;;;;;5.75;5.13;;;;;;;13.27;58.31;100048.66;5018795;28;20340;-68
2023/04/29 06:26:03;;;;;;;6.07;5.00;;;;;;;13.38;58.87;100050.09;5017915;28;20033;-68
2023/04/29 06:28:28;;;;;;;9.52;5.82;;;;;;;13.49;59.65;100051.56;5021454;28;20041;-65
2023/04/29 06:30:54;;;;;;;9.55;5.43;;;;;;;13.76;56.96;100045.78;5020134;28;20033;-63
2023/04/29 06:33:20;;;;;;;5.38;4.88;;;;;;;14.02;56.56;100048.94;5021814;28;20040;-65
2023/04/29 06:35:45;;;;;;;7.38;5.07;;;;;;;13.84;57.20;100048.41;5017629;28;20367;-63
2023/04/29 06:38:10;;;;;;;7.60;5.15;;;;;;;13.83;57.03;100046.75;5019835;28;20323;-63
2023/04/29 06:40:36;;;;;;;6.15;5.30;;;;;;;14.00;56.64;100036.81;5018685;28;20037;-68
2023/04/29 06:43:03;;;;;;;7.70;5.40;;;;;;;14.12;55.94;100037.25;5021637;28;20106;-66
2023/04/29 06:45:28;;;;;;;6.18;4.90;;;;;;;14.24;55.47;100035.81;5017703;28;20224;-63
2023/04/29 06:47:54;;;;;;;7.03;4.70;;;;;;;14.79;54.95;100030.22;5035728;28;20072;-64
2023/04/29 06:50:19;;;;;;;10.13;5.45;;;;;;;15.09;53.95;100036.38;5036108;28;20041;-64
2023/04/29 06:52:45;;;;;;;6.95;5.55;;;;;;;15.27;52.79;100033.34;5036924;28;20045;-63
2023/04/29 06:55:11;;;;;;;7.03;4.80;;;;;;;15.59;52.90;100026.78;5036623;28;20338;-63
2023/04/29 06:57:37;;;;;;;6.65;5.22;;;;;;;15.20;51.28;100035.94;5036918;28;20040;-66
2023/04/29 07:00:03;;;;;;;5.43;4.88;;;;;;;15.64;50.87;100030.59;5037794;28;20088;-64
2023/04/29 07:02:28;;;;;;;7.57;5.00;;;;;;;15.79;49.50;100024.38;5040683;28;20034;-63
2023/04/29 07:04:54;;;;;;;8.18;4.43;;;;;;;16.34;49.08;100014.84;5039114;28;20335;-66
2023/04/29 07:07:19;;;;;;;6.20;4.68;;;;;;;16.55;46.03;100018.31;5040082;28;20078;-63
2023/04/29 07:09:45;;;;;;;5.90;4.25;;;;;;;16.62;45.95;100015.69;5040171;28;20362;-64
2023/04/29 07:12:10;;;;;;;4.10;3.67;;;;;;;16.99;42.22;100011.88;5040357;28;20258;-64
2023/04/29 07:14:36;;;;;;;4.38;3.40;;;;;;;17.04;41.89;100012.09;5040436;28;20048;-66
2023/04/29 07:17:01;;;;;;;4.78;3.75;;;;;;;17.49;41.30;100012.53;5041151;28;20048;-66
2023/04/29 07:19:27;;;;;;;4.65;3.88;;;;;;;17.69;41.00;100005.44;5040881;28;20100;-64
2023/04/29 07:21:52;;;;;;;5.13;3.63;;;;;;;17.77;41.19;100007.09;5040436;28;20033;-65
2023/04/29 07:24:18;;;;;;;4.20;3.80;;;;;;;18.02;38.61;100002.00;5040655;28;20323;-65
2023/04/29 07:26:44;;;;;;;6.72;4.03;;;;;;;18.10;40.20;99997.28;5040812;28;20056;-66
2023/04/29 07:29:09;;;;;;;4.88;3.75;;;;;;;18.14;39.80;100001.19;5040463;28;20041;-65
2023/04/29 07:31:35;;;;;;;5.88;4.05;;;;;;;18.43;39.60;100002.66;5040585;28;20041;-67
2023/04/29 07:34:00;;;;;;;5.90;4.15;;;;;;;18.54;39.27;100005.75;5040893;28;20320;-65
2023/04/29 07:36:27;;;;;;;5.90;3.25;;;;;;;18.48;38.33;100002.03;5038942;28;20045;-67
2023/04/29 07:38:53;;;;;;;6.13;3.63;;;;;;;18.19;38.13;99993.38;5023876;28;20074;-67
2023/04/29 07:41:18;;;;;;;9.27;4.95;;;;;;;18.20;41.06;99999.56;5023230;28;20061;-65
2023/04/29 07:43:44;;;;;;;5.10;3.55;;;;;;;18.25;38.61;99999.75;5021770;28;20046;-64
2023/04/29 07:46:10;;;;;;;6.88;4.90;;;;;;;18.52;39.11;100000.56;5018583;28;20216;-65
2023/04/29 07:48:40;;;;;;;22.15;10.85;;;;;;;18.34;38.99;99995.84;5023214;28;20354;-67
2023/04/29 07:51:05;;;;;;;18.33;7.65;;;;;;;18.51;38.25;99996.25;5021777;28;20101;-67
2023/04/29 07:53:31;;;;;;;8.88;4.30;;;;;;;18.83;38.51;99996.47;5030138;28;20056;-67
2023/04/29 07:55:56;;;;;;;6.60;3.55;;;;;;;18.92;36.64;99987.16;5023998;28;20033;-64
2023/04/29 07:58:22;;;;;;;10.07;4.72;;;;;;;19.20;36.93;99989.56;5022570;28;20046;-64
2023/04/29 08:00:47;;;;;;;5.60;3.45;;;;;;;19.13;35.55;99976.16;5031581;28;20044;-65
2023/04/29 08:03:13;;;;;;;6.25;3.60;;;;;;;19.02;36.60;99979.50;5021584;28;20042;-66
2023/04/29 08:05:38;;;;;;;4.20;3.38;;;;;;;18.97;36.17;99976.63;5024513;28;20347;-67
2023/04/29 08:08:04;;;;;;;4.78;3.95;;;;;;;18.95;36.96;99984.88;5025803;28;20239;-67
2023/04/29 08:10:30;;;;;;;4.93;3.67;;;;;;;18.93;36.07;99981.59;5023843;28;20044;-67
2023/04/29 08:12:56;;;;;;;4.82;3.30;;;;;;;18.69;36.03;99969.66;5026442;28;20602;-67
2023/04/29 08:15:22;;;;;;;4.93;3.38;;;;;;;18.39;37.50;99965.72;5023548;28;20033;-67
2023/04/29 08:17:47;;;;;;;4.57;3.78;;;;;;;18.64;37.94;99968.63;5022605;28;20328;-67
2023/04/29 08:20:13;;;;;;;4.72;3.80;;;;;;;18.47;37.60;99963.66;5025274;28;20041;-67
2023/04/29 08:22:39;;;;;;;5.45;3.53;;;;;;;18.70;37.98;99959.75;5020576;28;20046;-67
2023/04/29 08:25:05;;;;;;;5.38;3.60;;;;;;;18.28;38.58;99953.78;5019422;28;20037;-67
2023/04/29 08:27:31;;;;;;;3.50;3.20;;;;;;;18.59;37.03;99955.81;5022632;28;20077;-67
2023/04/29 08:29:56;;;;;;;4.95;3.40;;;;;;;18.34;37.59;99947.59;5020486;28;20038;-67
2023/04/29 08:32:22;;;;;;;6.22;3.58;;;;;;;18.43;38.65;99938.31;5024468;28;20040;-67
2023/04/29 08:34:47;;;;;;;5.88;3.67;;;;;;;18.30;38.59;99938.31;5018876;28;20061;-67
2023/04/29 08:37:14;;;;;;;5.10;3.65;;;;;;;18.00;38.96;99932.53;5019342;28;20307;-67
2023/04/29 08:39:39;;;;;;;4.57;3.50;;;;;;;18.30;38.14;99946.34;5021843;28;20037;-67
2023/04/29 08:42:09;;;;;;;5.75;3.75;;;;;;;18.91;37.74;99945.28;5020583;28;20350;-67
2023/04/29 08:44:35;;;;;;;4.00;3.40;;;;;;;19.32;37.53;99940.34;5024197;28;20034;-67
2023/04/29 08:47:02;;;;;;;7.45;3.75;;;;;;;19.51;38.41;99940.47;5024344;28;20100;-67
2023/04/29 08:49:32;;;;;;;5.05;3.47;;;;;;;19.60;37.11;99923.09;5023166;28;20049;-67
2023/04/29 08:51:58;;;;;;;4.93;3.15;;;;;;;19.85;36.66;99920.47;5020777;28;20053;-68
2023/04/29 08:54:23;;;;;;;3.67;3.10;;;;;;;20.03;36.21;99924.03;5019929;28;20075;-68
2023/04/29 08:56:50;;;;;;;3.58;3.28;;;;;;;20.19;35.67;99916.47;5020013;28;20037;-68
2023/04/29 08:59:18;;;;;;;5.20;3.22;;;;;;;20.31;34.57;99923.59;5021360;28;20045;-68
2023/04/29 09:01:51;;;;;;;3.60;3.20;;;;;;;19.73;36.92;99923.81;5021948;28;20075;-68
2023/04/29 09:04:41;;;;;;;4.27;3.00;;;;;;;19.56;35.75;99922.69;5021166;28;20216;-68
2023/04/29 09:07:09;;;;;;;5.45;3.42;;;;;;;19.71;34.79;99917.84;5024244;28;20618;-68
2023/04/29 09:09:35;;;;;;;3.85;3.53;;;;;;;19.91;35.18;99909.66;5022884;28;20037;-68
2023/04/29 09:12:00;;;;;;;4.65;3.40;;;;;;;19.77;34.92;99911.63;5023114;28;20147;-68
2023/04/29 09:14:29;;;;;;;5.40;3.50;;;;;;;19.82;34.33;99908.28;5022910;28;20049;-68
2023/04/29 09:16:54;;;;;;;5.10;3.55;;;;;;;19.93;35.17;99894.16;5021639;28;20046;-68
2023/04/29 09:19:33;;;;;;;5.72;3.45;;;;;;;19.95;36.23;99900.13;5021541;28;20064;-68
2023/04/29 09:22:03;;;;;;;4.57;3.45;;;;;;;19.95;35.76;99899.31;5024033;28;20057;-68
2023/04/29 09:24:30;;;;;;;5.72;3.22;;;;;;;19.84;34.83;99889.25;5024284;28;20037;-68
2023/04/29 09:26:57;;;;;;;6.18;4.28;;;;;;;19.58;36.82;99896.44;5023096;28;20026;-68
2023/04/29 09:29:23;;;;;;;4.15;3.50;;;;;;;19.45;37.34;99891.13;5021586;28;20100;-68
2023/04/29 09:31:49;;;;;;;4.45;3.60;;;;;;;18.92;38.01;99895.94;5020647;28;20071;-67
2023/04/29 09:34:15;;;;;;;6.60;3.22;;;;;;;18.99;39.15;99878.78;5019831;28;20072;-68
2023/04/29 09:36:45;;;;;;;7.65;3.95;;;;;;;19.16;37.81;99879.09;5023127;28;20045;-67
2023/04/29 09:39:37;;;;;;;35.83;7.32;;;;;;;19.09;37.12;99865.72;5019724;28;20225;-68
2023/04/29 09:42:03;;;;;;;5.32;3.50;;;;;;;18.74;37.43;99861.75;5020604;28;20037;-68
2023/04/29 09:44:34;;;;;;;4.55;3.70;;;;;;;18.24;38.35;99868.63;5023785;28;20061;-68
2023/04/29 09:47:03;;;;;;;3.97;3.60;;;;;;;18.32;37.08;99855.84;5019891;28;20041;-68
2023/04/29 09:49:38;;;;;;;5.40;3.38;;;;;;;18.03;38.65;99849.06;5021315;28;20029;-68
2023/04/29 09:52:06;;;;;;;6.18;3.78;;;;;;;18.13;38.90;99851.34;5025146;28;20132;-68
2023/04/29 09:54:35;;;;;;;5.40;3.40;;;;;;;18.25;37.72;99846.97;5022465;28;20107;-68
2023/04/29 09:57:03;;;;;;;4.93;3.03;;;;;;;18.22;40.42;99849.25;5023645;28;20080;-68
2023/04/29 09:59:29;;;;;;;5.53;3.25;;;;;;;18.10;36.38;99841.84;5023236;28;20029;-68
2023/04/29 10:01:56;;;;;;;4.60;3.08;;;;;;;18.12;38.50;99831.75;5023043;28;20075;-67
2023/04/29 10:04:23;;;;;;;4.63;3.35;;;;;;;18.10;37.88;99838.34;5021636;28;20251;-67
2023/04/29 10:06:51;;;;;;;3.38;2.53;;;;;;;18.08;37.65;99821.66;5024496;28;20640;-67
2023/04/29 10:09:18;;;;;;;4.40;2.65;;;;;;;18.20;34.86;99819.97;5022323;28;20038;-67
2023/04/29 10:11:44;;;;;;;3.35;2.58;;;;;;;18.27;33.12;99823.47;5027603;28;20029;-67
2023/04/29 10:14:15;;;;;;;3.35;2.25;;;;;;;18.41;30.74;99824.25;5029120;28;20115;-67
2023/04/29 10:17:08;;;;;;;3.53;2.30;;;;;;;18.38;31.53;99819.31;5021563;28;20041;-67
2023/04/29 10:19:49;;;;;;;3.00;2.15;;;;;;;18.44;33.10;99815.78;5022883;28;20033;-67
2023/04/29 10:22:45;;;;;;;2.95;2.45;;;;;;;18.56;31.35;99815.97;5020251;28;20030;-68
2023/04/29 10:25:13;;;;;;;3.25;2.90;;;;;;;18.45;31.43;99804.84;5019303;28;20029;-67
2023/04/29 10:27:41;;;;;;;3.17;2.38;;;;;;;18.33;32.26;99806.53;5021760;28;20042;-67
2023/04/29 10:30:10;;;;;;;4.63;2.80;;;;;;;18.47;32.95;99800.09;5031621;28;20103;-67
2023/04/29 10:32:39;;;;;;;3.28;2.50;;;;;;;18.60;33.79;99793.88;5031793;28;20068;-67
2023/04/29 10:35:08;;;;;;;3.92;2.50;;;;;;;18.85;33.24;99793.19;5034366;28;20332;-67
2023/04/29 10:37:35;;;;;;;3.38;2.15;;;;;;;19.03;31.48;99786.06;5027113;28;20324;-68
2023/04/29 10:40:10;;;;;;;2.63;2.38;;;;;;;19.20;31.22;99790.91;5032920;28;20045;-67
2023/04/29 10:42:46;;;;;;;2.72;2.35;;;;;;;19.27;29.89;99789.84;5041149;28;20335;-65
2023/04/29 10:45:31;;;;;;;3.10;2.13;;;;;;;19.31;27.36;99787.53;5041174;28;20041;-67
2023/04/29 10:48:07;;;;;;;2.60;2.13;;;;;;;19.34;26.78;99779.88;5041414;28;20041;-67
2023/04/29 10:50:33;;;;;;;3.47;2.10;;;;;;;19.37;27.20;99774.06;5041292;28;20033;-67
2023/04/29 10:53:05;;;;;;;2.50;1.77;;;;;;;19.36;26.69;99767.03;5041560;28;20362;-64
2023/04/29 10:55:34;;;;;;;2.60;1.90;;;;;;;19.46;24.73;99770.06;5041755;28;20363;-67
2023/04/29 10:58:02;;;;;;;3.47;1.60;;;;;;;19.39;25.68;99771.16;5042161;28;20033;-67
2023/04/29 11:00:29;;;;;;;3.10;2.10;;;;;;;19.44;25.31;99763.28;5041114;28;20041;-65
2023/04/29 11:02:55;;;;;;;3.42;1.85;;;;;;;19.56;27.53;99761.53;5041604;28;20044;-67
2023/04/29 11:05:33;;;;;;;2.78;2.10;;;;;;;19.38;27.34;99754.22;5040883;28;20033;-65
2023/04/29 11:08:22;;;;;;;2.60;2.00;;;;;;;19.50;28.27;99750.81;5040437;28;20041;-65
2023/04/29 11:10:51;;;;;;;2.78;2.03;;;;;;;19.53;28.70;99740.50;5032535;28;20036;-67
2023/04/29 11:13:27;;;;;;;4.25;2.28;;;;;;;19.53;28.16;99745.88;5040313;28;20080;-67
2023/04/29 11:16:01;;;;;;;3.55;2.10;;;;;;;19.57;28.90;99739.00;5040055;28;20034;-65
2023/04/29 11:18:27;;;;;;;3.40;2.28;;;;;;;19.65;28.76;99738.72;5040231;28;20087;-67
2023/04/29 11:21:05;;;;;;;2.38;2.05;;;;;;;19.53;28.29;99737.00;5040263;28;20048;-65
2023/04/29 11:23:40;;;;;;;3.28;2.35;;;;;;;19.49;29.01;99717.78;5041031;28;20033;-64
2023/04/29 11:26:06;;;;;;;3.70;2.38;;;;;;;19.68;29.96;99721.34;5035314;28;20504;-64
2023/04/29 11:28:32;;;;;;;4.20;2.40;;;;;;;19.67;29.52;99715.16;5040223;28;20049;-65